sensor_id;sensor_type;location;lat;lon;timestamp;P1;durP1;ratioP1;P2;durP2;ratioP2
45402;SDS011;47427;51.976;5.326;2023-04-01T00:00:33;32.45;;;23.70;;
45402;SDS011;47427;51.976;5.326;2023-04-01T00:03:55;43.08;;;27.20;;
45402;SDS011;47427;51.976;5.326;2023-04-01T00:07:18;41.20;;;25.55;;
45402;SDS011;47427;51.976;5.326;2023-04-01T00:10:40;48.28;;;27.42;;
45402;SDS011;47427;51.976;5.326;2023-04-01T00:14:02;54.45;;;29.00;;
45402;SDS011;47427;51.976;5.326;2023-04-01T00:17:25;50.88;;;26.90;;
45402;SDS011;47427;51.976;5.326;2023-04-01T00:20:48;56.10;;;28.40;;
45402;SDS011;47427;51.976;5.326;2023-04-01T00:24:11;43.83;;;25.67;;
45402;SDS011;47427;51.976;5.326;2023-04-01T00:27:34;43.33;;;25.25;;
45402;SDS011;47427;51.976;5.326;2023-04-01T00:30:55;34.97;;;24.02;;
45402;SDS011;47427;51.976;5.326;2023-04-01T00:34:18;54.70;;;27.80;;
45402;SDS011;47427;51.976;5.326;2023-04-01T00:37:42;45.92;;;26.63;;
45402;SDS011;47427;51.976;5.326;2023-04-01T00:41:04;53.92;;;27.40;;
45402;SDS011;47427;51.976;5.326;2023-04-01T00:44:29;35.40;;;24.48;;
45402;SDS011;47427;51.976;5.326;2023-04-01T00:47:54;48.47;;;27.58;;
45402;SDS011;47427;51.976;5.326;2023-04-01T00:51:20;52.30;;;27.33;;
45402;SDS011;47427;51.976;5.326;2023-04-01T00:54:47;50.17;;;25.30;;
45402;SDS011;47427;51.976;5.326;2023-04-01T00:58:17;44.05;;;25.45;;
45402;SDS011;47427;51.976;5.326;2023-04-01T01:01:43;47.92;;;27.67;;
45402;SDS011;47427;51.976;5.326;2023-04-01T01:05:06;42.47;;;25.20;;
45402;SDS011;47427;51.976;5.326;2023-04-01T01:20:00;56.08;;;27.63;;
45402;SDS011;47427;51.976;5.326;2023-04-01T01:27:11;58.22;;;29.13;;
45402;SDS011;47427;51.976;5.326;2023-04-01T01:30:48;51.10;;;30.65;;
45402;SDS011;47427;51.976;5.326;2023-04-01T01:34:48;58.35;;;29.80;;
45402;SDS011;47427;51.976;5.326;2023-04-01T01:38:54;61.00;;;29.30;;
45402;SDS011;47427;51.976;5.326;2023-04-01T01:42:18;71.68;;;32.28;;
45402;SDS011;47427;51.976;5.326;2023-04-01T01:45:43;61.95;;;32.15;;
45402;SDS011;47427;51.976;5.326;2023-04-01T01:49:12;63.25;;;31.85;;
45402;SDS011;47427;51.976;5.326;2023-04-01T01:52:36;68.70;;;33.65;;
45402;SDS011;47427;51.976;5.326;2023-04-01T01:55:59;52.08;;;31.45;;
45402;SDS011;47427;51.976;5.326;2023-04-01T01:59:20;62.60;;;28.73;;
45402;SDS011;47427;51.976;5.326;2023-04-01T02:02:44;51.80;;;28.15;;
45402;SDS011;47427;51.976;5.326;2023-04-01T02:06:13;46.33;;;26.33;;
45402;SDS011;47427;51.976;5.326;2023-04-01T02:09:38;64.45;;;31.23;;
45402;SDS011;47427;51.976;5.326;2023-04-01T02:13:01;52.88;;;29.63;;
45402;SDS011;47427;51.976;5.326;2023-04-01T02:16:40;54.70;;;28.17;;
45402;SDS011;47427;51.976;5.326;2023-04-01T02:20:46;44.47;;;26.80;;
45402;SDS011;47427;51.976;5.326;2023-04-01T02:24:12;48.85;;;29.05;;
45402;SDS011;47427;51.976;5.326;2023-04-01T02:27:37;52.53;;;31.75;;
45402;SDS011;47427;51.976;5.326;2023-04-01T02:31:02;36.75;;;28.33;;
45402;SDS011;47427;51.976;5.326;2023-04-01T02:34:24;42.10;;;27.05;;
45402;SDS011;47427;51.976;5.326;2023-04-01T02:37:48;44.65;;;28.90;;
45402;SDS011;47427;51.976;5.326;2023-04-01T02:41:13;38.10;;;27.20;;
45402;SDS011;47427;51.976;5.326;2023-04-01T02:44:35;51.20;;;29.08;;
45402;SDS011;47427;51.976;5.326;2023-04-01T02:47:59;39.50;;;26.55;;
45402;SDS011;47427;51.976;5.326;2023-04-01T02:51:21;43.67;;;26.63;;
45402;SDS011;47427;51.976;5.326;2023-04-01T02:54:44;48.13;;;30.27;;
45402;SDS011;47427;51.976;5.326;2023-04-01T02:58:07;40.20;;;28.85;;
45402;SDS011;47427;51.976;5.326;2023-04-01T03:01:29;42.03;;;28.67;;
45402;SDS011;47427;51.976;5.326;2023-04-01T03:04:52;42.33;;;30.10;;
45402;SDS011;47427;51.976;5.326;2023-04-01T03:08:15;46.78;;;30.63;;
45402;SDS011;47427;51.976;5.326;2023-04-01T03:11:36;38.05;;;28.77;;
45402;SDS011;47427;51.976;5.326;2023-04-01T03:14:59;41.90;;;30.75;;
45402;SDS011;47427;51.976;5.326;2023-04-01T03:18:21;45.80;;;29.10;;
45402;SDS011;47427;51.976;5.326;2023-04-01T03:21:44;37.80;;;29.25;;
45402;SDS011;47427;51.976;5.326;2023-04-01T03:25:07;41.78;;;29.05;;
45402;SDS011;47427;51.976;5.326;2023-04-01T03:28:30;36.50;;;27.63;;
45402;SDS011;47427;51.976;5.326;2023-04-01T03:31:53;36.92;;;28.48;;
45402;SDS011;47427;51.976;5.326;2023-04-01T03:35:16;34.60;;;27.58;;
45402;SDS011;47427;51.976;5.326;2023-04-01T03:38:38;35.45;;;28.35;;
45402;SDS011;47427;51.976;5.326;2023-04-01T03:42:02;36.38;;;29.60;;
45402;SDS011;47427;51.976;5.326;2023-04-01T03:45:24;39.95;;;29.17;;
45402;SDS011;47427;51.976;5.326;2023-04-01T03:48:47;40.35;;;29.50;;
45402;SDS011;47427;51.976;5.326;2023-04-01T03:52:10;33.20;;;27.67;;
45402;SDS011;47427;51.976;5.326;2023-04-01T03:55:32;40.80;;;28.30;;
45402;SDS011;47427;51.976;5.326;2023-04-01T03:58:54;30.60;;;24.35;;
45402;SDS011;47427;51.976;5.326;2023-04-01T04:02:17;36.88;;;27.33;;
45402;SDS011;47427;51.976;5.326;2023-04-01T04:05:45;39.33;;;28.17;;
45402;SDS011;47427;51.976;5.326;2023-04-01T04:09:12;55.50;;;31.80;;
45402;SDS011;47427;51.976;5.326;2023-04-01T04:12:34;54.55;;;31.48;;
45402;SDS011;47427;51.976;5.326;2023-04-01T04:15:59;55.58;;;33.70;;
45402;SDS011;47427;51.976;5.326;2023-04-01T04:19:23;53.60;;;30.75;;
45402;SDS011;47427;51.976;5.326;2023-04-01T04:22:45;38.80;;;29.85;;
45402;SDS011;47427;51.976;5.326;2023-04-01T04:26:09;49.58;;;31.50;;
45402;SDS011;47427;51.976;5.326;2023-04-01T04:29:34;42.38;;;28.95;;
45402;SDS011;47427;51.976;5.326;2023-04-01T04:32:56;39.83;;;30.08;;
45402;SDS011;47427;51.976;5.326;2023-04-01T04:36:19;53.28;;;32.92;;
45402;SDS011;47427;51.976;5.326;2023-04-01T04:39:43;42.60;;;29.05;;
45402;SDS011;47427;51.976;5.326;2023-04-01T04:43:07;43.50;;;29.58;;
45402;SDS011;47427;51.976;5.326;2023-04-01T04:46:34;34.63;;;26.38;;
45402;SDS011;47427;51.976;5.326;2023-04-01T04:50:06;39.70;;;27.15;;
45402;SDS011;47427;51.976;5.326;2023-04-01T04:53:31;41.25;;;28.02;;
45402;SDS011;47427;51.976;5.326;2023-04-01T04:56:54;39.67;;;27.73;;
45402;SDS011;47427;51.976;5.326;2023-04-01T05:00:17;33.20;;;25.50;;
45402;SDS011;47427;51.976;5.326;2023-04-01T05:03:54;32.78;;;23.98;;
45402;SDS011;47427;51.976;5.326;2023-04-01T05:07:16;37.20;;;24.50;;
45402;SDS011;47427;51.976;5.326;2023-04-01T05:10:38;39.65;;;25.42;;
45402;SDS011;47427;51.976;5.326;2023-04-01T05:14:01;31.02;;;23.67;;
45402;SDS011;47427;51.976;5.326;2023-04-01T05:17:25;39.42;;;26.77;;
45402;SDS011;47427;51.976;5.326;2023-04-01T05:20:47;41.78;;;27.08;;
45402;SDS011;47427;51.976;5.326;2023-04-01T05:24:14;38.65;;;27.50;;
45402;SDS011;47427;51.976;5.326;2023-04-01T05:27:36;36.25;;;27.00;;
45402;SDS011;47427;51.976;5.326;2023-04-01T05:30:59;34.28;;;26.52;;
45402;SDS011;47427;51.976;5.326;2023-04-01T05:34:29;38.90;;;28.13;;
45402;SDS011;47427;51.976;5.326;2023-04-01T05:37:51;44.65;;;28.38;;
45402;SDS011;47427;51.976;5.326;2023-04-01T05:41:15;47.83;;;29.77;;
45402;SDS011;47427;51.976;5.326;2023-04-01T05:44:40;36.70;;;27.45;;
45402;SDS011;47427;51.976;5.326;2023-04-01T05:48:01;35.60;;;28.25;;
45402;SDS011;47427;51.976;5.326;2023-04-01T05:51:27;40.88;;;31.63;;
45402;SDS011;47427;51.976;5.326;2023-04-01T05:54:49;35.60;;;29.02;;
45402;SDS011;47427;51.976;5.326;2023-04-01T05:58:12;33.80;;;28.30;;
45402;SDS011;47427;51.976;5.326;2023-04-01T06:01:38;43.40;;;31.25;;
45402;SDS011;47427;51.976;5.326;2023-04-01T06:05:03;36.85;;;28.30;;
45402;SDS011;47427;51.976;5.326;2023-04-01T06:08:42;42.10;;;30.42;;
45402;SDS011;47427;51.976;5.326;2023-04-01T06:16:04;44.83;;;33.10;;
45402;SDS011;47427;51.976;5.326;2023-04-01T06:31:51;37.45;;;29.83;;
45402;SDS011;47427;51.976;5.326;2023-04-01T06:35:52;44.00;;;31.75;;
45402;SDS011;47427;51.976;5.326;2023-04-01T06:43:36;42.67;;;31.25;;
45402;SDS011;47427;51.976;5.326;2023-04-01T06:47:20;37.33;;;29.83;;
45402;SDS011;47427;51.976;5.326;2023-04-01T06:55:26;59.08;;;37.72;;
45402;SDS011;47427;51.976;5.326;2023-04-01T06:59:27;59.47;;;38.30;;
45402;SDS011;47427;51.976;5.326;2023-04-01T07:06:44;66.25;;;41.72;;
45402;SDS011;47427;51.976;5.326;2023-04-01T07:14:30;62.63;;;39.13;;
45402;SDS011;47427;51.976;5.326;2023-04-01T07:18:04;71.10;;;41.60;;
45402;SDS011;47427;51.976;5.326;2023-04-01T07:21:46;59.95;;;39.85;;
45402;SDS011;47427;51.976;5.326;2023-04-01T07:25:29;56.63;;;39.22;;
45402;SDS011;47427;51.976;5.326;2023-04-01T07:29:15;67.90;;;41.70;;
45402;SDS011;47427;51.976;5.326;2023-04-01T07:41:08;53.47;;;36.75;;
45402;SDS011;47427;51.976;5.326;2023-04-01T07:48:38;50.45;;;36.45;;
45402;SDS011;47427;51.976;5.326;2023-04-01T08:04:28;44.95;;;32.95;;
45402;SDS011;47427;51.976;5.326;2023-04-01T08:16:51;42.35;;;30.10;;
45402;SDS011;47427;51.976;5.326;2023-04-01T08:20:27;35.10;;;28.55;;
45402;SDS011;47427;51.976;5.326;2023-04-01T08:24:01;35.63;;;28.95;;
45402;SDS011;47427;51.976;5.326;2023-04-01T08:31:39;38.22;;;29.83;;
45402;SDS011;47427;51.976;5.326;2023-04-01T08:38:56;37.17;;;30.67;;
45402;SDS011;47427;51.976;5.326;2023-04-01T09:03:08;37.65;;;31.70;;
45402;SDS011;47427;51.976;5.326;2023-04-01T09:14:40;43.33;;;33.03;;
45402;SDS011;47427;51.976;5.326;2023-04-01T09:34:26;42.60;;;32.20;;
45402;SDS011;47427;51.976;5.326;2023-04-01T09:49:41;33.92;;;28.13;;
45402;SDS011;47427;51.976;5.326;2023-04-01T09:53:43;30.40;;;26.98;;
45402;SDS011;47427;51.976;5.326;2023-04-01T09:57:53;32.53;;;26.92;;
45402;SDS011;47427;51.976;5.326;2023-04-01T10:13:18;36.30;;;29.60;;
45402;SDS011;47427;51.976;5.326;2023-04-01T10:37:23;30.42;;;27.20;;
45402;SDS011;47427;51.976;5.326;2023-04-01T11:19:03;17.10;;;15.90;;
45402;SDS011;47427;51.976;5.326;2023-04-01T11:27:08;17.52;;;16.15;;
45402;SDS011;47427;51.976;5.326;2023-04-01T11:31:50;16.90;;;15.70;;
45402;SDS011;47427;51.976;5.326;2023-04-01T11:59:08;18.35;;;17.15;;
45402;SDS011;47427;51.976;5.326;2023-04-01T12:10:02;16.40;;;15.07;;
45402;SDS011;47427;51.976;5.326;2023-04-01T12:17:39;16.50;;;15.50;;
45402;SDS011;47427;51.976;5.326;2023-04-01T12:33:03;19.70;;;18.10;;
45402;SDS011;47427;51.976;5.326;2023-04-01T12:44:08;17.05;;;15.85;;
45402;SDS011;47427;51.976;5.326;2023-04-01T12:48:05;18.38;;;17.13;;
45402;SDS011;47427;51.976;5.326;2023-04-01T12:51:50;18.57;;;17.27;;
45402;SDS011;47427;51.976;5.326;2023-04-01T12:55:44;17.20;;;15.90;;
45402;SDS011;47427;51.976;5.326;2023-04-01T12:59:18;19.75;;;18.05;;
45402;SDS011;47427;51.976;5.326;2023-04-01T13:18:40;15.38;;;14.45;;
45402;SDS011;47427;51.976;5.326;2023-04-01T13:26:35;15.13;;;14.05;;
45402;SDS011;47427;51.976;5.326;2023-04-01T13:30:54;17.15;;;16.05;;
45402;SDS011;47427;51.976;5.326;2023-04-01T13:49:48;23.17;;;21.40;;
45402;SDS011;47427;51.976;5.326;2023-04-01T13:54:00;23.77;;;21.88;;
45402;SDS011;47427;51.976;5.326;2023-04-01T13:57:48;24.15;;;22.15;;
45402;SDS011;47427;51.976;5.326;2023-04-01T14:01:39;24.23;;;22.13;;
45402;SDS011;47427;51.976;5.326;2023-04-01T14:05:51;22.67;;;20.92;;
45402;SDS011;47427;51.976;5.326;2023-04-01T14:32:46;15.68;;;14.63;;
45402;SDS011;47427;51.976;5.326;2023-04-01T14:51:38;14.57;;;13.68;;
45402;SDS011;47427;51.976;5.326;2023-04-01T14:55:29;17.63;;;16.10;;
45402;SDS011;47427;51.976;5.326;2023-04-01T14:59:04;19.23;;;17.58;;
45402;SDS011;47427;51.976;5.326;2023-04-01T15:14:14;18.45;;;17.23;;
45402;SDS011;47427;51.976;5.326;2023-04-01T15:25:30;16.90;;;15.50;;
45402;SDS011;47427;51.976;5.326;2023-04-01T15:33:35;18.08;;;16.77;;
45402;SDS011;47427;51.976;5.326;2023-04-01T15:40:47;16.38;;;15.27;;
45402;SDS011;47427;51.976;5.326;2023-04-01T15:44:52;16.38;;;15.18;;
45402;SDS011;47427;51.976;5.326;2023-04-01T15:52:39;17.00;;;15.80;;
45402;SDS011;47427;51.976;5.326;2023-04-01T15:56:28;16.60;;;15.43;;
45402;SDS011;47427;51.976;5.326;2023-04-01T16:00:31;15.60;;;14.70;;
45402;SDS011;47427;51.976;5.326;2023-04-01T16:23:00;17.65;;;16.23;;
45402;SDS011;47427;51.976;5.326;2023-04-01T16:26:43;16.63;;;15.57;;
45402;SDS011;47427;51.976;5.326;2023-04-01T16:30:35;16.70;;;15.70;;
45402;SDS011;47427;51.976;5.326;2023-04-01T16:34:10;15.27;;;14.38;;
45402;SDS011;47427;51.976;5.326;2023-04-01T16:38:01;15.63;;;14.73;;
45402;SDS011;47427;51.976;5.326;2023-04-01T16:41:52;16.67;;;15.45;;
45402;SDS011;47427;51.976;5.326;2023-04-01T16:56:39;17.88;;;16.52;;
45402;SDS011;47427;51.976;5.326;2023-04-01T17:04:06;15.82;;;14.82;;
45402;SDS011;47427;51.976;5.326;2023-04-01T17:08:15;16.83;;;15.52;;
45402;SDS011;47427;51.976;5.326;2023-04-01T17:12:16;17.75;;;16.63;;
45402;SDS011;47427;51.976;5.326;2023-04-01T17:16:21;17.60;;;16.50;;
45402;SDS011;47427;51.976;5.326;2023-04-01T17:28:10;18.17;;;16.52;;
45402;SDS011;47427;51.976;5.326;2023-04-01T17:31:46;18.98;;;17.38;;
45402;SDS011;47427;51.976;5.326;2023-04-01T17:42:48;18.73;;;17.38;;
45402;SDS011;47427;51.976;5.326;2023-04-01T17:54:39;19.05;;;17.75;;
45402;SDS011;47427;51.976;5.326;2023-04-01T18:02:35;20.42;;;19.05;;
45402;SDS011;47427;51.976;5.326;2023-04-01T18:06:19;19.88;;;18.48;;
45402;SDS011;47427;51.976;5.326;2023-04-01T18:25:12;17.42;;;16.23;;
45402;SDS011;47427;51.976;5.326;2023-04-01T18:32:49;18.67;;;17.38;;
45402;SDS011;47427;51.976;5.326;2023-04-01T18:47:54;18.80;;;17.40;;
45402;SDS011;47427;51.976;5.326;2023-04-01T18:51:50;19.25;;;17.88;;
45402;SDS011;47427;51.976;5.326;2023-04-01T19:06:55;21.77;;;20.35;;
45402;SDS011;47427;51.976;5.326;2023-04-01T19:10:22;23.05;;;21.33;;
45402;SDS011;47427;51.976;5.326;2023-04-01T19:14:27;23.25;;;21.65;;
45402;SDS011;47427;51.976;5.326;2023-04-01T19:18:26;23.15;;;21.38;;
45402;SDS011;47427;51.976;5.326;2023-04-01T19:25:51;23.23;;;21.52;;
45402;SDS011;47427;51.976;5.326;2023-04-01T19:36:53;22.80;;;21.08;;
45402;SDS011;47427;51.976;5.326;2023-04-01T19:40:47;22.63;;;20.92;;
45402;SDS011;47427;51.976;5.326;2023-04-01T19:44:34;23.63;;;21.92;;
45402;SDS011;47427;51.976;5.326;2023-04-01T19:52:14;21.70;;;20.30;;
45402;SDS011;47427;51.976;5.326;2023-04-01T19:56:02;22.75;;;21.05;;
45402;SDS011;47427;51.976;5.326;2023-04-01T20:03:34;21.27;;;19.73;;
45402;SDS011;47427;51.976;5.326;2023-04-01T20:14:57;21.02;;;19.65;;
45402;SDS011;47427;51.976;5.326;2023-04-01T20:18:37;21.75;;;20.40;;
45402;SDS011;47427;51.976;5.326;2023-04-01T20:25:52;21.38;;;20.00;;
45402;SDS011;47427;51.976;5.326;2023-04-01T20:29:37;22.95;;;21.45;;
45402;SDS011;47427;51.976;5.326;2023-04-01T20:37:24;23.05;;;21.55;;
45402;SDS011;47427;51.976;5.326;2023-04-01T20:41:48;24.42;;;22.42;;
45402;SDS011;47427;51.976;5.326;2023-04-01T20:45:46;24.75;;;22.95;;
45402;SDS011;47427;51.976;5.326;2023-04-01T20:58:18;26.05;;;24.05;;
45402;SDS011;47427;51.976;5.326;2023-04-01T21:14:04;27.92;;;25.52;;
45402;SDS011;47427;51.976;5.326;2023-04-01T21:25:11;25.77;;;23.98;;
45402;SDS011;47427;51.976;5.326;2023-04-01T21:37:07;25.23;;;23.13;;
45402;SDS011;47427;51.976;5.326;2023-04-01T21:40:57;25.00;;;23.10;;
45402;SDS011;47427;51.976;5.326;2023-04-01T21:49:24;25.35;;;23.35;;
45402;SDS011;47427;51.976;5.326;2023-04-01T21:57:09;25.52;;;23.30;;
45402;SDS011;47427;51.976;5.326;2023-04-01T22:04:44;24.02;;;22.23;;
45402;SDS011;47427;51.976;5.326;2023-04-01T22:23:30;23.80;;;21.98;;
45402;SDS011;47427;51.976;5.326;2023-04-01T22:27:11;24.73;;;22.85;;
45402;SDS011;47427;51.976;5.326;2023-04-01T22:30:53;25.92;;;23.98;;
45402;SDS011;47427;51.976;5.326;2023-04-01T22:34:27;25.95;;;23.95;;
45402;SDS011;47427;51.976;5.326;2023-04-01T22:42:43;25.67;;;23.67;;
45402;SDS011;47427;51.976;5.326;2023-04-01T22:50:15;25.38;;;23.58;;
45402;SDS011;47427;51.976;5.326;2023-04-01T23:01:33;26.50;;;24.33;;
45402;SDS011;47427;51.976;5.326;2023-04-01T23:05:03;26.10;;;24.13;;
45402;SDS011;47427;51.976;5.326;2023-04-01T23:12:16;28.60;;;26.35;;
45402;SDS011;47427;51.976;5.326;2023-04-01T23:15:40;28.45;;;26.20;;
45402;SDS011;47427;51.976;5.326;2023-04-01T23:34:17;27.95;;;25.42;;
45402;SDS011;47427;51.976;5.326;2023-04-01T23:37:45;28.48;;;26.08;;
45402;SDS011;47427;51.976;5.326;2023-04-01T23:41:17;28.73;;;26.52;;
45402;SDS011;47427;51.976;5.326;2023-04-01T23:44:48;28.80;;;26.33;;
45402;SDS011;47427;51.976;5.326;2023-04-01T23:48:14;28.60;;;26.40;;
45402;SDS011;47427;51.976;5.326;2023-04-01T23:51:52;27.88;;;25.60;;
45402;SDS011;47427;51.976;5.326;2023-04-01T23:55:22;27.98;;;25.58;;
45402;SDS011;47427;51.976;5.326;2023-04-01T23:58:49;28.23;;;25.92;;
